Time;durP1;ratioP1;P1;durP2;ratioP2;P2;SDS_P1;SDS_P2;PMS_P1;PMS_P2;Temp;Humidity;BMP_temperature;BMP_pressure;BME280_temperature;BME280_humidity;BME280_pressure;Samples;Min_cycle;Max_cycle;Signal;HPM_P1;HPM_P2
2021/05/20 00:01:11;;;;;;;7.53;5.18;;;10.20;94.60;;;;;;5067598;28;20037;-72
2021/05/20 00:03:37;;;;;;;8.32;5.72;;;10.20;94.70;;;;;;5066343;28;20025;-71
2021/05/20 00:06:05;;;;;;;8.13;6.05;;;10.20;94.70;;;;;;5066443;28;20064;-72
2021/05/20 00:08:31;;;;;;;6.55;5.55;;;10.20;94.60;;;;;;5066542;28;20497;-71
2021/05/20 00:10:57;;;;;;;8.93;5.88;;;10.20;94.30;;;;;;5064604;28;20045;-71
2021/05/20 00:13:22;;;;;;;8.35;5.40;;;10.30;94.50;;;;;;5063176;28;20532;-71
2021/05/20 00:15:48;;;;;;;8.52;5.20;;;10.20;94.40;;;;;;5068083;28;20035;-71
2021/05/20 00:18:14;;;;;;;7.53;5.55;;;10.30;94.60;;;;;;5065201;28;20033;-71
2021/05/20 00:20:39;;;;;;;5.63;4.70;;;10.30;94.30;;;;;;5063812;28;20081;-71
2021/05/20 00:23:05;;;;;;;9.65;6.18;;;10.30;94.50;;;;;;5064350;28;20025;-71
2021/05/20 00:25:31;;;;;;;6.90;5.18;;;10.30;94.30;;;;;;5066980;28;20039;-72
2021/05/20 00:27:56;;;;;;;6.20;4.35;;;10.30;94.40;;;;;;5061923;28;20071;-71
2021/05/20 00:30:22;;;;;;;5.68;4.43;;;10.30;94.50;;;;;;5063109;28;20033;-72
2021/05/20 00:32:48;;;;;;;6.85;3.97;;;10.30;94.60;;;;;;5043630;28;20372;-71
2021/05/20 00:35:13;;;;;;;7.13;4.57;;;10.30;94.80;;;;;;5068912;28;20037;-71
2021/05/20 00:37:39;;;;;;;7.03;4.05;;;10.30;94.60;;;;;;5066758;28;20016;-71
2021/05/20 00:40:06;;;;;;;7.22;4.53;;;10.30;94.70;;;;;;5045576;28;20067;-71
2021/05/20 00:42:31;;;;;;;8.02;4.57;;;10.30;94.30;;;;;;5062116;28;20025;-70
2021/05/20 00:45:02;;;;;;;6.28;4.15;;;10.30;94.10;;;;;;5061462;28;20025;-70
2021/05/20 00:47:30;;;;;;;5.53;3.60;;;10.20;94.10;;;;;;5060462;28;20070;-70
2021/05/20 00:49:57;;;;;;;5.43;3.33;;;10.20;94.60;;;;;;5062652;28;20100;-70
2021/05/20 00:52:24;;;;;;;6.13;3.95;;;10.30;94.60;;;;;;5060256;28;20036;-71
2021/05/20 00:54:51;;;;;;;6.28;3.78;;;10.30;94.10;;;;;;5062783;28;20033;-70
2021/05/20 00:57:19;;;;;;;7.32;4.40;;;10.20;94.30;;;;;;5063505;28;20127;-70
2021/05/20 00:59:45;;;;;;;5.25;3.85;;;10.20;93.90;;;;;;5060235;28;20104;-70
2021/05/20 01:02:11;;;;;;;4.60;3.53;;;10.20;94.10;;;;;;5061893;28;20033;-70
2021/05/20 01:04:37;;;;;;;5.22;3.50;;;10.20;93.60;;;;;;5061491;28;20025;-70
2021/05/20 01:07:03;;;;;;;5.57;4.07;;;10.10;93.90;;;;;;5041865;28;20891;-70
2021/05/20 01:09:29;;;;;;;3.25;2.90;;;10.20;94.10;;;;;;5060982;28;20691;-70
2021/05/20 01:11:55;;;;;;;5.28;3.72;;;10.20;94.30;;;;;;5060410;28;20033;-70
2021/05/20 01:14:21;;;;;;;3.65;2.83;;;10.20;94.20;;;;;;5061461;28;20501;-70
2021/05/20 01:16:47;;;;;;;4.07;3.10;;;10.20;94.30;;;;;;5059770;28;20034;-70
2021/05/20 01:19:14;;;;;;;3.50;3.10;;;10.20;94.10;;;;;;5059374;28;20033;-70
2021/05/20 01:21:40;;;;;;;6.60;3.63;;;10.20;94.20;;;;;;5059373;28;20025;-70
2021/05/20 01:24:07;;;;;;;4.50;2.88;;;10.20;93.80;;;;;;5060517;28;20081;-70
2021/05/20 01:26:39;;;;;;;5.13;2.78;;;10.20;93.70;;;;;;5059951;28;20056;-70
2021/05/20 01:29:07;;;;;;;3.00;2.45;;;10.20;94.00;;;;;;5062236;28;20364;-70
2021/05/20 01:31:33;;;;;;;4.57;3.25;;;10.20;94.10;;;;;;5063132;28;20550;-70
2021/05/20 01:34:00;;;;;;;4.47;2.97;;;10.20;93.80;;;;;;5062290;28;20397;-70
2021/05/20 01:36:27;;;;;;;4.53;3.00;;;10.30;93.90;;;;;;5059334;28;20086;-70
2021/05/20 01:38:53;;;;;;;4.10;3.08;;;10.30;93.80;;;;;;5063002;28;20465;-70
2021/05/20 01:41:19;;;;;;;5.43;3.17;;;10.30;93.80;;;;;;5063849;28;20351;-69
2021/05/20 01:43:45;;;;;;;3.95;2.90;;;10.30;93.60;;;;;;5066495;28;20021;-70
2021/05/20 01:46:11;;;;;;;3.65;3.08;;;10.30;94.00;;;;;;5064103;28;20482;-69
2021/05/20 01:48:39;;;;;;;4.80;3.50;;;10.30;94.00;;;;;;5054203;28;20650;-69
2021/05/20 01:51:20;;;;;;;4.00;3.10;;;10.30;94.10;;;;;;5065582;28;20544;-69
2021/05/20 01:53:48;;;;;;;3.88;3.08;;;10.40;94.00;;;;;;5064580;28;20104;-69
2021/05/20 01:56:17;;;;;;;3.95;3.20;;;10.30;93.70;;;;;;5045628;28;20028;-69
2021/05/20 01:58:43;;;;;;;6.25;3.20;;;10.30;93.60;;;;;;5063438;28;20021;-69
2021/05/20 02:01:09;;;;;;;5.18;3.08;;;10.30;93.70;;;;;;5065090;28;20029;-69
2021/05/20 02:03:36;;;;;;;3.50;2.47;;;10.40;93.70;;;;;;5064018;28;20089;-69
2021/05/20 02:06:02;;;;;;;3.83;2.47;;;10.30;93.80;;;;;;5062049;28;20024;-69
2021/05/20 02:08:35;;;;;;;3.95;2.95;;;10.30;93.60;;;;;;5064399;28;20033;-69
2021/05/20 02:11:01;;;;;;;4.07;2.78;;;10.30;93.70;;;;;;5064485;28;20032;-71
2021/05/20 02:13:27;;;;;;;5.53;3.25;;;10.30;93.80;;;;;;5065232;28;20095;-71
2021/05/20 02:15:53;;;;;;;3.92;2.72;;;10.40;93.30;;;;;;5063047;28;20130;-69
2021/05/20 02:18:19;;;;;;;3.65;2.75;;;10.30;93.40;;;;;;5063331;28;20119;-71
2021/05/20 02:20:45;;;;;;;3.67;2.75;;;10.30;93.40;;;;;;5062140;28;20024;-70
2021/05/20 02:23:13;;;;;;;3.45;2.88;;;10.30;93.50;;;;;;5065936;28;20094;-71
2021/05/20 02:25:39;;;;;;;3.80;3.17;;;10.30;93.50;;;;;;5063769;28;20029;-71
2021/05/20 02:28:05;;;;;;;3.63;3.00;;;10.20;93.40;;;;;;5061792;28;20044;-71
2021/05/20 02:30:31;;;;;;;3.58;2.90;;;10.20;93.70;;;;;;5063194;28;20397;-69
2021/05/20 02:32:56;;;;;;;3.13;2.72;;;10.10;93.60;;;;;;5064238;28;20029;-69
2021/05/20 02:35:22;;;;;;;4.95;3.47;;;10.10;93.80;;;;;;5062945;28;20663;-69
2021/05/20 02:37:48;;;;;;;3.83;3.03;;;10.10;93.80;;;;;;5061163;28;20033;-69
2021/05/20 02:40:16;;;;;;;3.63;2.78;;;10.10;94.00;;;;;;5057486;28;20033;-70
2021/05/20 02:42:43;;;;;;;3.85;2.78;;;10.10;93.90;;;;;;5062811;28;20103;-71
2021/05/20 02:45:20;;;;;;;3.08;2.65;;;10.10;94.10;;;;;;5065236;28;20029;-69
2021/05/20 02:47:48;;;;;;;4.50;3.08;;;10.20;94.10;;;;;;5063087;28;20029;-70
2021/05/20 02:50:15;;;;;;;5.03;3.33;;;10.10;94.10;;;;;;5062648;28;20115;-70
2021/05/20 02:52:45;;;;;;;3.38;3.08;;;10.10;93.90;;;;;;5063977;28;20024;-70
2021/05/20 02:55:15;;;;;;;5.57;3.50;;;10.20;94.00;;;;;;5063925;28;20035;-70
2021/05/20 02:58:03;;;;;;;3.40;2.72;;;10.20;93.70;;;;;;5061585;28;20162;-70
2021/05/20 03:00:31;;;;;;;4.95;3.00;;;10.20;94.10;;;;;;5061744;28;20044;-70
2021/05/20 03:02:57;;;;;;;3.80;2.75;;;10.20;94.10;;;;;;5061525;28;20029;-70
2021/05/20 03:05:24;;;;;;;4.20;3.10;;;10.20;94.10;;;;;;5061915;28;20478;-70
2021/05/20 03:07:53;;;;;;;4.28;2.88;;;10.20;93.80;;;;;;5062996;28;20048;-71
2021/05/20 03:10:18;;;;;;;4.43;3.17;;;10.20;94.00;;;;;;5068066;28;20032;-71
2021/05/20 03:12:44;;;;;;;9.57;3.28;;;10.20;94.10;;;;;;5043358;28;20047;-70
2021/05/20 03:15:10;;;;;;;4.22;2.85;;;10.10;93.90;;;;;;5064924;28;20028;-70
2021/05/20 03:17:36;;;;;;;3.58;2.65;;;10.10;94.20;;;;;;5061677;28;20129;-70
2021/05/20 03:20:04;;;;;;;2.97;2.63;;;10.10;94.40;;;;;;5061964;28;20033;-70
2021/05/20 03:22:30;;;;;;;4.72;3.22;;;10.20;94.60;;;;;;5065214;28;20021;-70
2021/05/20 03:24:55;;;;;;;4.53;3.10;;;10.20;94.40;;;;;;5063400;28;20066;-70
2021/05/20 03:27:21;;;;;;;6.38;3.28;;;10.10;94.20;;;;;;5062710;28;20401;-70
2021/05/20 03:29:47;;;;;;;4.13;3.45;;;10.10;94.10;;;;;;5060508;28;20078;-70
2021/05/20 03:32:13;;;;;;;4.88;3.38;;;10.10;94.20;;;;;;5058603;28;20967;-70
2021/05/20 03:34:38;;;;;;;6.82;4.05;;;10.10;94.10;;;;;;5064181;28;20025;-70
2021/05/20 03:37:04;;;;;;;6.70;4.78;;;10.10;94.10;;;;;;5061721;28;20025;-71
2021/05/20 03:39:33;;;;;;;6.18;4.57;;;10.10;94.20;;;;;;5064605;28;20025;-70
2021/05/20 03:41:59;;;;;;;8.90;4.47;;;10.10;94.10;;;;;;5064139;28;20029;-70
2021/05/20 03:44:26;;;;;;;7.93;5.20;;;10.10;94.30;;;;;;5063954;28;20079;-70
2021/05/20 03:46:52;;;;;;;6.00;4.70;;;10.10;94.20;;;;;;5060164;28;20547;-70
2021/05/20 03:49:17;;;;;;;12.07;6.43;;;10.10;94.50;;;;;;5065432;28;20119;-70
2021/05/20 03:51:43;;;;;;;6.47;5.38;;;10.10;94.40;;;;;;5063118;28;20032;-70
2021/05/20 03:54:09;;;;;;;6.43;5.10;;;10.10;94.60;;;;;;5061541;28;20041;-70
2021/05/20 03:56:34;;;;;;;8.75;5.78;;;10.10;94.60;;;;;;5064787;28;20024;-70
2021/05/20 03:59:00;;;;;;;8.05;6.07;;;10.10;94.60;;;;;;5062048;28;20074;-70
2021/05/20 04:01:26;;;;;;;8.32;6.90;;;10.10;94.50;;;;;;5060619;28;20029;-71
2021/05/20 04:03:53;;;;;;;11.68;7.35;;;10.10;94.40;;;;;;5058731;28;20425;-70
2021/05/20 04:06:19;;;;;;;8.55;6.75;;;10.10;94.40;;;;;;5062983;28;20101;-70
2021/05/20 04:08:44;;;;;;;9.07;6.65;;;10.10;94.60;;;;;;5061886;28;20025;-71
2021/05/20 04:11:10;;;;;;;9.50;6.75;;;10.10;94.50;;;;;;5062151;28;20078;-70
2021/05/20 04:13:41;;;;;;;9.35;6.00;;;10.10;94.40;;;;;;5042411;28;20083;-70
2021/05/20 04:16:08;;;;;;;10.10;7.38;;;10.20;94.60;;;;;;5061037;28;20025;-70
2021/05/20 04:18:34;;;;;;;10.05;6.97;;;10.20;94.30;;;;;;5060843;28;20039;-70
2021/05/20 04:21:01;;;;;;;8.75;6.72;;;10.10;94.40;;;;;;5060997;28;20025;-70
2021/05/20 04:23:28;;;;;;;8.45;6.60;;;10.10;94.50;;;;;;5061501;28;20027;-69
2021/05/20 04:25:55;;;;;;;8.60;6.72;;;10.20;94.50;;;;;;5041905;28;20116;-69
2021/05/20 04:28:21;;;;;;;9.80;7.90;;;10.20;94.40;;;;;;5062032;28;20127;-69
2021/05/20 04:30:47;;;;;;;12.88;8.02;;;10.20;94.30;;;;;;5060849;28;20032;-69
2021/05/20 04:33:13;;;;;;;15.48;9.32;;;10.20;94.20;;;;;;5060544;28;20800;-69
2021/05/20 04:35:39;;;;;;;12.20;7.45;;;10.20;94.20;;;;;;5062289;28;20017;-69
2021/05/20 04:38:07;;;;;;;14.32;9.73;;;10.20;94.30;;;;;;5061281;28;20047;-69
2021/05/20 04:40:34;;;;;;;10.18;7.82;;;10.20;94.10;;;;;;5060765;28;20033;-69
2021/05/20 04:43:01;;;;;;;11.50;9.27;;;10.20;94.30;;;;;;5060203;28;20036;-69
2021/05/20 04:45:27;;;;;;;11.93;8.35;;;10.20;94.20;;;;;;5058886;28;20029;-69
2021/05/20 04:47:52;;;;;;;10.05;7.93;;;10.20;94.10;;;;;;5062197;28;20028;-69
2021/05/20 04:50:19;;;;;;;12.48;8.45;;;10.20;94.10;;;;;;5061070;28;20513;-69
2021/05/20 04:52:46;;;;;;;12.45;8.85;;;10.20;94.20;;;;;;5061682;28;20020;-69
2021/05/20 04:55:13;;;;;;;12.93;10.65;;;10.30;94.40;;;;;;5060908;28;20078;-69
2021/05/20 04:57:39;;;;;;;16.30;11.30;;;10.30;94.00;;;;;;5059301;28;20020;-69
2021/05/20 05:00:07;;;;;;;13.55;10.27;;;10.20;93.80;;;;;;5061085;28;20028;-69
2021/05/20 05:02:33;;;;;;;13.45;9.60;;;10.20;94.00;;;;;;5060150;28;20047;-68
2021/05/20 05:04:59;;;;;;;13.90;10.75;;;10.30;94.00;;;;;;5059889;28;20649;-69
2021/05/20 05:07:25;;;;;;;18.52;11.60;;;10.30;94.00;;;;;;5060616;28;20116;-69
2021/05/20 05:09:51;;;;;;;12.95;10.02;;;10.30;94.00;;;;;;5061888;28;20147;-70
2021/05/20 05:12:16;;;;;;;15.43;9.70;;;10.30;94.10;;;;;;5058471;28;20501;-70
2021/05/20 05:14:42;;;;;;;19.27;10.73;;;10.40;94.20;;;;;;5060780;28;20108;-69
2021/05/20 05:17:08;;;;;;;16.10;9.95;;;10.40;94.00;;;;;;5063409;28;20036;-69
2021/05/20 05:19:34;;;;;;;14.50;10.27;;;10.40;94.10;;;;;;5064340;28;20028;-70
2021/05/20 05:22:02;;;;;;;11.68;9.18;;;10.40;93.60;;;;;;5064591;28;20059;-69
2021/05/20 05:24:32;;;;;;;12.18;8.52;;;10.40;93.90;;;;;;5065056;28;20028;-69
2021/05/20 05:26:58;;;;;;;15.65;10.60;;;10.40;94.00;;;;;;5055716;28;20494;-70
2021/05/20 05:29:24;;;;;;;14.48;10.68;;;10.40;93.90;;;;;;5061144;28;20051;-69
2021/05/20 05:31:50;;;;;;;14.80;10.43;;;10.40;93.80;;;;;;5066775;28;20029;-70
2021/05/20 05:34:17;;;;;;;13.45;10.07;;;10.50;93.80;;;;;;5062374;28;20034;-70
2021/05/20 05:36:43;;;;;;;11.77;9.55;;;10.50;93.80;;;;;;5046936;28;20025;-70
2021/05/20 05:39:09;;;;;;;15.00;11.25;;;10.50;93.80;;;;;;5063799;28;20470;-69
2021/05/20 05:41:35;;;;;;;11.63;9.18;;;10.50;93.70;;;;;;5045472;28;20055;-70
2021/05/20 05:44:01;;;;;;;12.95;10.10;;;10.50;93.80;;;;;;5064081;28;20033;-69
2021/05/20 05:46:27;;;;;;;12.82;10.13;;;10.50;93.80;;;;;;5063803;28;20074;-70
2021/05/20 05:48:54;;;;;;;14.70;10.43;;;10.50;93.90;;;;;;5064179;28;20036;-69
2021/05/20 05:51:22;;;;;;;14.50;10.40;;;10.50;93.60;;;;;;5063673;28;20059;-69
2021/05/20 05:53:51;;;;;;;11.02;9.80;;;10.60;93.90;;;;;;5065170;28;20086;-69
2021/05/20 05:56:16;;;;;;;19.15;10.85;;;10.60;94.00;;;;;;5064574;28;20032;-70
2021/05/20 05:58:42;;;;;;;13.15;9.45;;;10.60;93.90;;;;;;5064921;28;20032;-70
2021/05/20 06:01:08;;;;;;;14.93;9.30;;;10.70;94.30;;;;;;5066240;28;20033;-70
2021/05/20 06:03:37;;;;;;;11.23;7.95;;;10.80;93.40;;;;;;5063509;28;20052;-70
2021/05/20 06:06:03;;;;;;;11.75;9.50;;;10.80;93.50;;;;;;5061563;28;20055;-71
2021/05/20 06:08:29;;;;;;;13.75;8.35;;;10.90;93.60;;;;;;5064545;28;20032;-71
2021/05/20 06:10:54;;;;;;;13.38;9.50;;;10.80;93.60;;;;;;5068700;28;20036;-75
2021/05/20 06:13:20;;;;;;;13.60;8.57;;;10.80;93.70;;;;;;5070287;28;20086;-71
2021/05/20 06:15:46;;;;;;;12.90;8.88;;;10.80;94.00;;;;;;5049897;28;20474;-71
2021/05/20 06:18:12;;;;;;;11.35;8.65;;;10.90;93.60;;;;;;5065535;28;20044;-73
2021/05/20 06:20:37;;;;;;;12.02;8.45;;;10.90;93.30;;;;;;5069708;28;20035;-74
2021/05/20 06:23:03;;;;;;;12.43;8.82;;;10.90;93.60;;;;;;5070236;28;20108;-72
2021/05/20 06:25:29;;;;;;;15.93;8.40;;;11.00;93.50;;;;;;5067282;28;20037;-74
2021/05/20 06:27:55;;;;;;;11.57;8.63;;;11.10;93.40;;;;;;5066209;28;20131;-71
2021/05/20 06:30:21;;;;;;;10.95;8.80;;;11.10;93.40;;;;;;5051875;28;20028;-71
2021/05/20 06:32:47;;;;;;;9.90;7.38;;;11.10;93.20;;;;;;5066302;28;20067;-69
2021/05/20 06:35:13;;;;;;;14.40;8.32;;;11.10;93.40;;;;;;5065049;28;20097;-72
2021/05/20 06:37:39;;;;;;;12.63;9.18;;;11.10;93.30;;;;;;5044714;28;20029;-72
2021/05/20 06:40:06;;;;;;;13.05;9.77;;;11.20;93.10;;;;;;5063469;28;20031;-73
2021/05/20 06:42:33;;;;;;;10.27;7.72;;;11.10;93.10;;;;;;5045636;28;20094;-72
2021/05/20 06:44:59;;;;;;;14.45;6.88;;;11.20;93.00;;;;;;5027053;28;20024;-73
2021/05/20 06:47:24;;;;;;;10.30;6.18;;;11.20;93.30;;;;;;5067262;28;20513;-73
2021/05/20 06:49:51;;;;;;;10.27;6.57;;;11.30;93.70;;;;;;5065629;28;20033;-74
2021/05/20 06:52:16;;;;;;;8.95;6.00;;;11.50;92.80;;;;;;5065044;28;20045;-74
2021/05/20 06:54:42;;;;;;;9.02;5.13;;;11.50;91.70;;;;;;5062043;28;20028;-72
2021/05/20 06:57:17;;;;;;;11.48;6.50;;;11.50;91.70;;;;;;5062813;28;20906;-72
2021/05/20 06:59:59;;;;;;;8.07;4.95;;;11.50;91.90;;;;;;5063352;28;20509;-73
2021/05/20 07:02:26;;;;;;;8.23;5.47;;;11.50;92.30;;;;;;5065033;28;20860;-76
2021/05/20 07:04:51;;;;;;;8.65;5.50;;;11.60;92.60;;;;;;5064933;28;20100;-74
2021/05/20 07:07:18;;;;;;;8.32;6.18;;;11.60;92.10;;;;;;5062368;28;20093;-75
2021/05/20 07:09:44;;;;;;;10.60;5.63;;;11.60;91.30;;;;;;5061116;28;20549;-72
2021/05/20 07:12:10;;;;;;;12.18;5.60;;;11.60;91.80;;;;;;5065040;28;20154;-76
2021/05/20 07:14:36;;;;;;;8.05;5.30;;;11.70;91.10;;;;;;5053450;28;20048;-76
2021/05/20 07:17:02;;;;;;;7.55;4.47;;;11.70;90.90;;;;;;5060535;28;20115;-73
2021/05/20 07:19:28;;;;;;;6.15;4.55;;;11.80;91.00;;;;;;5059060;28;20761;-73
2021/05/20 07:21:54;;;;;;;6.47;4.43;;;11.90;91.00;;;;;;5068099;28;20086;-75
2021/05/20 07:24:20;;;;;;;7.47;4.35;;;11.90;90.70;;;;;;5072511;28;20032;-75
2021/05/20 07:26:45;;;;;;;6.75;4.82;;;12.00;90.60;;;;;;5036007;28;20470;-76
2021/05/20 07:29:11;;;;;;;8.63;5.88;;;12.10;90.20;;;;;;5053850;28;20035;-76
2021/05/20 07:31:39;;;;;;;6.90;4.55;;;12.20;90.10;;;;;;5071541;28;20028;-77
2021/05/20 07:34:04;;;;;;;7.72;4.85;;;12.10;90.30;;;;;;5053616;28;20028;-73
2021/05/20 07:36:30;;;;;;;9.75;5.30;;;12.10;90.50;;;;;;5043488;28;20032;-74
2021/05/20 07:38:56;;;;;;;6.90;4.90;;;12.00;90.10;;;;;;5043899;28;20029;-74
2021/05/20 07:41:30;;;;;;;6.05;3.90;;;12.00;89.70;;;;;;5066951;28;20099;-74
2021/05/20 07:43:56;;;;;;;8.02;4.70;;;12.00;90.10;;;;;;5062936;28;20099;-72
2021/05/20 07:46:22;;;;;;;7.38;5.05;;;12.10;90.30;;;;;;5068371;28;20039;-74
2021/05/20 07:48:47;;;;;;;8.20;5.55;;;12.10;89.70;;;;;;5047902;28;20028;-74
2021/05/20 07:51:13;;;;;;;6.53;3.70;;;12.20;88.40;;;;;;5065641;28;20083;-74
2021/05/20 07:53:39;;;;;;;6.00;4.00;;;12.30;90.20;;;;;;5067630;28;20024;-73
2021/05/20 07:56:05;;;;;;;6.38;3.20;;;12.40;89.10;;;;;;5068616;28;20021;-75
2021/05/20 07:58:31;;;;;;;6.80;3.80;;;12.40;88.30;;;;;;5066507;28;20441;-75
2021/05/20 08:01:00;;;;;;;4.90;3.85;;;12.40;86.00;;;;;;5066829;28;20109;-75
2021/05/20 08:11:02;;;;;;;5.60;2.88;;;12.40;85.80;;;;;;5066210;28;20032;-75
2021/05/20 08:13:29;;;;;;;6.95;4.07;;;12.40;86.60;;;;;;5066569;28;20079;-75
2021/05/20 08:15:55;;;;;;;6.63;3.35;;;12.50;85.40;;;;;;5064134;28;20368;-74
2021/05/20 08:18:21;;;;;;;5.40;2.72;;;12.50;86.10;;;;;;5029571;28;20044;-76
2021/05/20 08:20:47;;;;;;;6.10;3.15;;;12.50;87.20;;;;;;5067637;28;20032;-75
2021/05/20 08:23:16;;;;;;;6.55;4.30;;;12.50;87.80;;;;;;5062434;28;20031;-75
2021/05/20 08:25:42;;;;;;;5.30;3.58;;;12.50;85.20;;;;;;5041426;28;20024;-75
2021/05/20 08:28:08;;;;;;;3.13;2.72;;;12.50;85.80;;;;;;5058876;28;20020;-74
2021/05/20 08:30:34;;;;;;;7.22;3.03;;;12.40;86.00;;;;;;5060050;28;20036;-74
2021/05/20 08:33:01;;;;;;;4.57;2.92;;;12.40;85.50;;;;;;5061135;28;20071;-75
2021/05/20 08:35:26;;;;;;;7.32;3.03;;;12.40;85.70;;;;;;5060336;28;20483;-76
2021/05/20 08:37:52;;;;;;;6.55;3.00;;;12.50;85.30;;;;;;5060933;28;20037;-75
2021/05/20 08:40:18;;;;;;;4.22;2.95;;;12.60;85.80;;;;;;5041338;28;20036;-75
2021/05/20 08:42:44;;;;;;;4.63;2.65;;;12.60;84.50;;;;;;5062579;28;20100;-73
2021/05/20 08:45:11;;;;;;;4.90;2.70;;;12.60;86.10;;;;;;5058025;28;20060;-75
2021/05/20 08:47:40;;;;;;;4.45;2.53;;;12.70;84.60;;;;;;5059129;28;20025;-76
2021/05/20 08:50:07;;;;;;;4.95;2.60;;;12.70;85.30;;;;;;5062325;28;20124;-74
2021/05/20 08:52:35;;;;;;;4.80;2.50;;;12.80;85.10;;;;;;5061713;28;20513;-75
2021/05/20 08:55:02;;;;;;;5.05;2.60;;;13.00;84.20;;;;;;5061739;28;20025;-76
2021/05/20 08:57:28;;;;;;;4.13;2.47;;;13.20;85.90;;;;;;5059391;28;20095;-74
2021/05/20 08:59:54;;;;;;;5.60;2.92;;;13.30;82.00;;;;;;5062189;28;20032;-74
2021/05/20 09:02:23;;;;;;;3.42;2.30;;;13.40;82.90;;;;;;5059593;28;20145;-74
2021/05/20 09:04:57;;;;;;;3.08;2.05;;;13.60;81.80;;;;;;5066497;28;20454;-73
2021/05/20 09:07:31;;;;;;;4.65;2.40;;;13.60;82.50;;;;;;5046269;28;20044;-74
2021/05/20 09:10:33;;;;;;;6.47;3.72;;;13.60;81.20;;;;;;5058048;28;20067;-74
2021/05/20 09:13:01;;;;;;;4.43;2.13;;;13.60;79.10;;;;;;4986910;28;20766;-74
2021/05/20 09:15:33;;;;;;;3.67;2.40;;;13.70;82.80;;;;;;5046270;28;20486;-75
2021/05/20 09:18:17;;;;;;;3.88;2.53;;;14.10;82.30;;;;;;5059583;28;20100;-75
2021/05/20 09:20:49;;;;;;;3.85;2.20;;;14.30;80.20;;;;;;5062754;28;20044;-74
2021/05/20 09:23:20;;;;;;;3.60;2.40;;;14.50;79.40;;;;;;5056171;28;20043;-75
2021/05/20 09:25:47;;;;;;;4.20;2.38;;;14.80;81.60;;;;;;5060541;28;20055;-74
2021/05/20 09:28:15;;;;;;;3.70;2.10;;;14.80;80.60;;;;;;5059001;28;20063;-71
2021/05/20 09:30:43;;;;;;;5.85;2.17;;;14.70;77.90;;;;;;5059330;28;20028;-74
2021/05/20 09:33:14;;;;;;;5.18;2.83;;;14.60;78.20;;;;;;5060460;28;20039;-75
2021/05/20 09:35:50;;;;;;;2.67;1.73;;;14.50;77.60;;;;;;5062119;28;20432;-76
2021/05/20 09:38:19;;;;;;;4.68;2.50;;;14.40;80.30;;;;;;5060019;28;20021;-74
2021/05/20 09:40:58;;;;;;;3.50;2.30;;;14.30;78.80;;;;;;5063107;28;20116;-76
2021/05/20 09:43:39;;;;;;;3.17;2.00;;;14.20;79.60;;;;;;5058317;28;20535;-75
2021/05/20 09:46:16;;;;;;;2.35;1.90;;;14.20;81.40;;;;;;5054082;28;20028;-76
2021/05/20 09:48:46;;;;;;;4.80;2.45;;;14.10;82.30;;;;;;5062737;28;20321;-78
2021/05/20 09:51:24;;;;;;;3.25;2.83;;;14.00;82.60;;;;;;5058844;28;20053;-75
2021/05/20 09:53:53;;;;;;;5.80;3.22;;;14.00;83.70;;;;;;5061768;28;20044;-76
2021/05/20 09:56:33;;;;;;;5.63;2.92;;;13.90;82.40;;;;;;5061053;28;20029;-77
2021/05/20 09:58:59;;;;;;;3.60;3.25;;;13.80;83.60;;;;;;5061405;28;20033;-76
2021/05/20 10:01:24;;;;;;;4.20;2.97;;;13.80;83.30;;;;;;5067380;28;20141;-77
2021/05/20 10:03:55;;;;;;;4.20;2.63;;;13.80;81.60;;;;;;5072728;28;20032;-72
2021/05/20 10:06:49;;;;;;;6.70;3.15;;;13.80;83.80;;;;;;5062972;28;20020;-72
2021/05/20 10:09:16;;;;;;;3.40;2.40;;;14.00;81.60;;;;;;5046756;28;20458;-70
2021/05/20 10:11:43;;;;;;;5.82;2.55;;;14.10;83.20;;;;;;5061946;28;20025;-72
2021/05/20 10:14:09;;;;;;;3.20;2.05;;;14.30;81.60;;;;;;5063702;28;20020;-71
2021/05/20 10:16:39;;;;;;;4.05;2.03;;;14.40;80.40;;;;;;5064241;28;20037;-76
2021/05/20 10:19:06;;;;;;;3.53;2.40;;;14.30;79.40;;;;;;5071353;28;20032;-76
2021/05/20 10:21:32;;;;;;;3.90;2.20;;;14.20;78.80;;;;;;5071572;28;20270;-77
2021/05/20 10:23:58;;;;;;;4.45;2.38;;;14.20;80.70;;;;;;5071421;28;20036;-76
2021/05/20 10:26:25;;;;;;;3.10;1.88;;;14.10;80.00;;;;;;5052544;28;20498;-77
2021/05/20 10:28:51;;;;;;;5.10;2.25;;;14.20;82.80;;;;;;5070542;28;20062;-75
2021/05/20 10:31:17;;;;;;;5.47;2.22;;;14.30;83.20;;;;;;5069414;28;20029;-73
2021/05/20 10:33:43;;;;;;;3.53;2.45;;;14.60;82.60;;;;;;5069415;28;20032;-77
2021/05/20 10:36:25;;;;;;;4.18;3.30;;;14.80;77.80;;;;;;5069556;28;20033;-78
2021/05/20 10:38:51;;;;;;;2.92;2.55;;;14.90;75.40;;;;;;5067317;28;20017;-79
2021/05/20 10:41:20;;;;;;;2.88;2.42;;;14.80;77.00;;;;;;5052342;28;20054;-76
2021/05/20 10:43:49;;;;;;;3.78;2.47;;;14.70;75.20;;;;;;5074524;28;20028;-79
2021/05/20 10:46:17;;;;;;;4.15;3.05;;;14.60;74.50;;;;;;5074972;28;20033;-80
2021/05/20 10:48:51;;;;;;;5.03;2.83;;;14.50;75.40;;;;;;5053797;28;20034;-79
2021/05/20 10:51:28;;;;;;;4.63;2.38;;;14.40;76.80;;;;;;5054372;28;20032;-77
2021/05/20 10:54:01;;;;;;;2.85;1.98;;;14.40;76.10;;;;;;5067544;28;20036;-78
2021/05/20 10:56:26;;;;;;;3.13;1.75;;;14.40;80.00;;;;;;5055095;28;22126;-80
2021/05/20 10:58:53;;;;;;;4.15;2.53;;;14.40;80.50;;;;;;5068411;28;20103;-75
2021/05/20 11:01:22;;;;;;;3.83;2.60;;;14.30;78.90;;;;;;5068251;28;20382;-75
2021/05/20 11:03:58;;;;;;;4.15;2.90;;;14.30;80.50;;;;;;5064417;28;20063;-75
2021/05/20 11:06:33;;;;;;;6.68;3.08;;;14.20;79.90;;;;;;5064048;28;20043;-75
2021/05/20 11:08:59;;;;;;;4.20;2.83;;;14.20;79.10;;;;;;5044087;28;20031;-75
2021/05/20 11:11:31;;;;;;;5.25;3.90;;;14.10;80.30;;;;;;5068254;28;20159;-74
2021/05/20 11:14:26;;;;;;;7.13;3.95;;;14.00;79.70;;;;;;5065216;28;20029;-76
2021/05/20 11:16:52;;;;;;;5.28;3.30;;;13.90;80.00;;;;;;5066104;28;20032;-76
2021/05/20 11:19:24;;;;;;;4.47;3.78;;;13.90;80.70;;;;;;5050601;28;20021;-77
2021/05/20 11:22:07;;;;;;;10.00;4.60;;;13.80;82.20;;;;;;5050863;28;20086;-77
2021/05/20 11:24:41;;;;;;;4.55;3.92;;;13.90;81.30;;;;;;5064613;28;20025;-74
2021/05/20 11:27:14;;;;;;;6.45;3.78;;;13.90;82.70;;;;;;5065600;28;20482;-76
2021/05/20 11:29:41;;;;;;;5.95;3.35;;;14.10;83.80;;;;;;5067236;28;20525;-74
2021/05/20 11:37:34;;;;;;;5.53;3.10;;;17.50;78.10;;;;;;5063901;28;20020;-75
2021/05/20 11:40:01;;;;;;;3.92;3.13;;;18.20;73.70;;;;;;5064722;28;20017;-75
2021/05/20 11:42:31;;;;;;;5.82;4.65;;;18.10;70.90;;;;;;5065654;28;20120;-75
2021/05/20 11:44:59;;;;;;;4.33;3.67;;;17.50;69.20;;;;;;5069116;28;20477;-74
2021/05/20 11:47:25;;;;;;;7.32;4.18;;;16.90;73.70;;;;;;5068591;28;20032;-75
2021/05/20 11:49:52;;;;;;;7.03;4.47;;;17.00;76.50;;;;;;5068535;28;20052;-76
2021/05/20 11:52:19;;;;;;;6.72;2.92;;;17.00;73.40;;;;;;5066907;28;20108;-75
2021/05/20 11:54:50;;;;;;;8.13;3.83;;;16.80;73.30;;;;;;5070804;28;20017;-75
2021/05/20 11:57:21;;;;;;;3.97;2.72;;;16.60;72.90;;;;;;5064621;28;20425;-75
2021/05/20 11:59:47;;;;;;;5.50;3.83;;;16.30;74.80;;;;;;5066250;28;20033;-74
2021/05/20 12:02:23;;;;;;;4.65;2.88;;;16.10;75.80;;;;;;5067680;28;20402;-74
2021/05/20 12:05:05;;;;;;;5.50;3.53;;;15.80;77.00;;;;;;5070655;28;20107;-75
2021/05/20 12:07:32;;;;;;;5.75;3.20;;;15.60;74.80;;;;;;5032910;28;20063;-75
2021/05/20 12:10:15;;;;;;;4.15;3.00;;;15.60;78.20;;;;;;5063355;28;20024;-74
2021/05/20 12:12:48;;;;;;;6.35;3.38;;;15.90;76.60;;;;;;5066629;28;20120;-74
2021/05/20 12:15:19;;;;;;;4.68;2.78;;;16.30;77.10;;;;;;5048823;28;20027;-75
2021/05/20 12:17:45;;;;;;;3.60;3.13;;;16.40;75.20;;;;;;5064005;28;20447;-75
2021/05/20 12:20:13;;;;;;;7.30;3.80;;;16.30;75.00;;;;;;5065567;28;20670;-75
2021/05/20 12:22:39;;;;;;;6.95;3.38;;;16.10;71.00;;;;;;5068160;28;20381;-75
2021/05/20 12:25:07;;;;;;;7.97;3.10;;;15.90;74.30;;;;;;5064021;28;20033;-76
2021/05/20 12:27:35;;;;;;;4.85;2.28;;;15.60;74.90;;;;;;5048685;28;20074;-75
2021/05/20 12:30:03;;;;;;;4.28;2.45;;;15.20;75.10;;;;;;5066452;28;20025;-75
2021/05/20 12:32:46;;;;;;;6.35;2.10;;;14.80;79.50;;;;;;5066256;28;20039;-75
2021/05/20 12:35:21;;;;;;;6.72;2.67;;;14.40;84.90;;;;;;5066170;28;20029;-75
2021/05/20 12:38:01;;;;;;;4.57;2.70;;;14.00;88.10;;;;;;5064939;28;20548;-75
2021/05/20 12:40:27;;;;;;;4.33;2.93;;;13.70;89.30;;;;;;5069813;28;20021;-75
2021/05/20 12:43:26;;;;;;;3.90;2.75;;;13.40;90.00;;;;;;5051420;28;20040;-75
2021/05/20 12:46:06;;;;;;;3.38;2.47;;;13.30;90.40;;;;;;5067412;28;20029;-74
2021/05/20 12:48:37;;;;;;;7.88;3.20;;;13.10;90.50;;;;;;5066799;28;20111;-73
2021/05/20 12:51:24;;;;;;;3.95;2.00;;;13.00;90.80;;;;;;5044581;28;20024;-74
2021/05/20 12:53:53;;;;;;;4.15;2.25;;;12.80;90.90;;;;;;5067695;28;20105;-74
2021/05/20 12:56:30;;;;;;;4.70;2.13;;;12.80;91.10;;;;;;5062955;28;20036;-76
2021/05/20 12:59:11;;;;;;;3.72;1.83;;;12.70;91.10;;;;;;5057353;28;20021;-75
2021/05/20 13:01:40;;;;;;;5.18;2.38;;;12.60;91.20;;;;;;5062931;28;20028;-74